createdAt,value
2023-01-31T00:03:31.205Z,99313.97
2023-01-31T00:06:24.245Z,99310.19
2023-01-31T00:09:13.303Z,99315.69
2023-01-31T00:12:00.361Z,99299.56
2023-01-31T00:14:47.467Z,99311.44
2023-01-31T00:17:34.590Z,99315.00
2023-01-31T00:20:21.662Z,99316.91
2023-01-31T00:23:08.736Z,99292.66
2023-01-31T00:25:55.841Z,99313.19
2023-01-31T00:28:43.927Z,99315.66
2023-01-31T00:31:33.565Z,99302.72
2023-01-31T00:34:20.758Z,99326.94
2023-01-31T00:37:08.051Z,99327.34
2023-01-31T00:39:55.190Z,99321.00
2023-01-31T00:42:42.441Z,99335.38
2023-01-31T00:45:29.660Z,99344.00
2023-01-31T00:48:16.745Z,99304.59
2023-01-31T00:51:04.056Z,99336.09
2023-01-31T00:53:51.435Z,99340.69
2023-01-31T00:56:38.475Z,99345.00
2023-01-31T00:59:25.602Z,99332.44
2023-01-31T01:02:12.665Z,99324.00
2023-01-31T01:04:59.740Z,99315.50
2023-01-31T01:07:46.973Z,99318.16
2023-01-31T01:10:34.722Z,99332.81
2023-01-31T01:13:22.090Z,99314.50
2023-01-31T01:16:12.942Z,99327.75
2023-01-31T01:19:03.077Z,99310.91
2023-01-31T01:21:50.182Z,99312.69
2023-01-31T01:24:37.327Z,99323.44
2023-01-31T01:27:24.461Z,99299.34
2023-01-31T01:30:12.147Z,99324.31
2023-01-31T01:32:59.342Z,99301.47
2023-01-31T01:35:46.387Z,99311.41
2023-01-31T01:38:37.538Z,99321.34
2023-01-31T01:41:24.866Z,99315.06
2023-01-31T01:44:44.468Z,99322.19
2023-01-31T01:48:03.920Z,99316.16
2023-01-31T01:50:51.005Z,99318.84
2023-01-31T01:53:41.500Z,99345.22
2023-01-31T01:56:37.785Z,99348.25
2023-01-31T01:59:48.545Z,99345.00
2023-01-31T02:02:36.714Z,99343.03
2023-01-31T02:05:31.243Z,99326.84
2023-01-31T02:08:23.442Z,99324.63
2023-01-31T02:11:19.109Z,99319.84
2023-01-31T02:14:09.761Z,99350.63
2023-01-31T02:16:56.779Z,99337.34
2023-01-31T02:19:57.655Z,99348.53
2023-01-31T02:23:04.672Z,99348.53
2023-01-31T02:26:28.230Z,99348.75
2023-01-31T02:29:59.126Z,99340.88
2023-01-31T02:33:18.396Z,99361.03
2023-01-31T02:36:11.049Z,99362.19
2023-01-31T02:39:12.874Z,99371.09
2023-01-31T02:42:10.814Z,99377.91
2023-01-31T02:45:23.704Z,99373.94
2023-01-31T02:48:19.716Z,99391.72
2023-01-31T02:51:15.585Z,99382.47
2023-01-31T02:54:12.679Z,99363.72
2023-01-31T02:56:59.834Z,99369.47
2023-01-31T02:59:46.969Z,99373.75
2023-01-31T03:02:34.093Z,99374.31
2023-01-31T03:05:21.836Z,99399.91
2023-01-31T03:08:16.426Z,99396.13
2023-01-31T03:11:07.907Z,99411.38
2023-01-31T03:14:30.170Z,99410.50
2023-01-31T03:17:47.628Z,99396.66
2023-01-31T03:21:01.021Z,99407.47
2023-01-31T03:23:53.702Z,99421.84
2023-01-31T03:26:42.155Z,99421.88
2023-01-31T03:29:34.530Z,99426.16
2023-01-31T03:32:26.917Z,99415.34
2023-01-31T03:35:14.049Z,99421.50
2023-01-31T03:38:08.050Z,99424.72
2023-01-31T03:41:08.467Z,99424.81
2023-01-31T03:44:29.142Z,99440.41
2023-01-31T03:47:25.268Z,99429.50
2023-01-31T03:50:29.941Z,99419.59
2023-01-31T03:53:25.248Z,99423.25
2023-01-31T03:56:31.288Z,99439.28
2023-01-31T03:59:26.182Z,99443.72
2023-01-31T04:02:16.857Z,99451.31
2023-01-31T04:05:14.854Z,99449.88
2023-01-31T04:08:02.313Z,99454.44
2023-01-31T04:10:50.628Z,99459.28
2023-01-31T04:13:37.945Z,99462.03
2023-01-31T04:16:25.093Z,99472.19
2023-01-31T04:19:12.172Z,99472.06
2023-01-31T04:21:59.254Z,99461.47
2023-01-31T04:24:46.325Z,99466.63
2023-01-31T04:27:33.515Z,99466.28
2023-01-31T04:30:20.653Z,99460.69
2023-01-31T04:33:07.719Z,99481.84
2023-01-31T04:35:54.799Z,99471.69
2023-01-31T04:38:41.943Z,99485.16
2023-01-31T04:41:29.126Z,99473.22
2023-01-31T04:44:16.864Z,99494.72
2023-01-31T04:47:04.035Z,99493.22
2023-01-31T04:49:51.094Z,99485.91
2023-01-31T04:52:38.137Z,99455.16
2023-01-31T04:55:26.058Z,99499.00
2023-01-31T04:58:13.186Z,99498.34
2023-01-31T05:01:00.356Z,99494.63
2023-01-31T05:03:47.413Z,99499.66
2023-01-31T05:06:34.500Z,99497.56
2023-01-31T05:09:22.941Z,99509.72
2023-01-31T05:12:10.090Z,99490.47
2023-01-31T05:14:57.260Z,99500.41
2023-01-31T05:17:45.214Z,99502.50
2023-01-31T05:20:36.603Z,99503.38
2023-01-31T05:23:23.851Z,99496.72
2023-01-31T05:26:11.564Z,99499.31
2023-01-31T05:29:00.650Z,99490.22
2023-01-31T05:31:52.265Z,99491.63
2023-01-31T05:34:39.507Z,99510.28
2023-01-31T05:37:26.695Z,99512.56
2023-01-31T05:40:16.825Z,99518.81
2023-01-31T05:43:04.236Z,99508.78
2023-01-31T05:45:51.374Z,99535.78
2023-01-31T05:48:38.546Z,99525.66
2023-01-31T05:51:25.598Z,99529.81
2023-01-31T05:54:13.804Z,99563.56
2023-01-31T05:57:01.451Z,99556.81
2023-01-31T05:59:48.610Z,99556.25
2023-01-31T06:02:35.667Z,99551.22
2023-01-31T06:05:23.002Z,99565.31
2023-01-31T06:08:11.213Z,99563.13
2023-01-31T06:11:01.212Z,99565.41
2023-01-31T06:13:49.524Z,99560.31
2023-01-31T06:16:36.615Z,99563.25
2023-01-31T06:19:25.477Z,99585.06
2023-01-31T06:22:12.664Z,99595.09
2023-01-31T06:24:59.708Z,99598.44
2023-01-31T06:27:46.860Z,99597.31
2023-01-31T06:30:34.402Z,99595.97
2023-01-31T06:33:24.284Z,99585.44
2023-01-31T06:36:11.485Z,99603.56
2023-01-31T06:38:58.555Z,99613.31
2023-01-31T06:41:45.746Z,99617.13
2023-01-31T06:44:33.712Z,99626.78
2023-01-31T06:47:20.811Z,99631.75
2023-01-31T06:50:08.200Z,99640.63
2023-01-31T06:52:55.414Z,99648.09
2023-01-31T06:55:42.687Z,99648.00
2023-01-31T06:58:30.317Z,99670.31
2023-01-31T07:01:17.794Z,99657.00
2023-01-31T07:04:05.025Z,99676.38
2023-01-31T07:06:52.613Z,99682.69
2023-01-31T07:09:39.774Z,99673.28
2023-01-31T07:12:27.471Z,99671.28
2023-01-31T07:15:14.661Z,99665.13
2023-01-31T07:18:04.104Z,99662.94
2023-01-31T07:20:51.520Z,99664.16
2023-01-31T07:23:38.608Z,99663.31
2023-01-31T07:26:26.417Z,99665.75
2023-01-31T07:29:13.567Z,99659.88
2023-01-31T07:32:01.637Z,99672.06
2023-01-31T07:34:48.893Z,99666.59
2023-01-31T07:37:36.125Z,99686.72
2023-01-31T07:40:23.268Z,99690.91
2023-01-31T07:43:10.368Z,99685.19
2023-01-31T07:45:57.645Z,99703.59
2023-01-31T07:48:45.022Z,99685.56
2023-01-31T07:51:32.355Z,99697.03
2023-01-31T07:54:19.461Z,99697.44
2023-01-31T07:57:06.650Z,99705.75
2023-01-31T07:59:53.708Z,99703.75
2023-01-31T08:02:59.250Z,99695.97
2023-01-31T08:05:47.705Z,99717.56
2023-01-31T08:08:36.500Z,99682.16
2023-01-31T08:11:23.879Z,99703.13
2023-01-31T08:14:11.172Z,99698.81
2023-01-31T08:16:58.266Z,99717.16
2023-01-31T08:19:45.445Z,99708.88
2023-01-31T08:22:32.837Z,99701.75
2023-01-31T08:25:20.963Z,99711.03
2023-01-31T08:28:09.135Z,99733.63
2023-01-31T08:31:08.149Z,99728.41
2023-01-31T08:33:57.499Z,99746.94
2023-01-31T08:36:45.329Z,99741.28
2023-01-31T08:39:32.552Z,99734.53
2023-01-31T08:42:19.683Z,99694.81
2023-01-31T08:45:07.411Z,99727.69
2023-01-31T08:47:59.999Z,99736.06
2023-01-31T08:50:47.088Z,99723.22
2023-01-31T08:53:37.125Z,99749.53
2023-01-31T08:56:26.403Z,99733.56
2023-01-31T08:59:13.695Z,99741.72
2023-01-31T09:02:00.769Z,99749.16
2023-01-31T09:04:48.026Z,99751.91
2023-01-31T09:07:35.979Z,99767.34
2023-01-31T09:10:23.253Z,99786.44
2023-01-31T09:13:10.528Z,99778.16
2023-01-31T09:16:02.961Z,99799.88
2023-01-31T09:18:50.085Z,99785.38
2023-01-31T09:21:37.243Z,99790.69
2023-01-31T09:24:24.318Z,99807.34
2023-01-31T09:27:11.379Z,99801.00
2023-01-31T09:29:58.441Z,99805.25
2023-01-31T09:32:46.530Z,99790.44
2023-01-31T09:35:33.554Z,99798.16
2023-01-31T09:38:20.643Z,99787.81
2023-01-31T09:41:23.969Z,99780.31
2023-01-31T09:44:17.628Z,99779.38
2023-01-31T09:47:21.451Z,99794.13
2023-01-31T09:50:24.193Z,99784.81
2023-01-31T09:53:21.829Z,99773.38
2023-01-31T09:56:14.651Z,99782.00
2023-01-31T09:59:13.946Z,99781.81
2023-01-31T10:02:12.859Z,99790.22
2023-01-31T10:05:11.699Z,99778.88
2023-01-31T10:08:10.251Z,99768.94
2023-01-31T10:11:00.876Z,99780.06
2023-01-31T10:13:57.703Z,99764.75
2023-01-31T10:17:06.347Z,99761.09
2023-01-31T10:19:57.452Z,99764.16
2023-01-31T10:22:51.082Z,99761.94
2023-01-31T10:25:53.167Z,99750.34
2023-01-31T10:28:46.510Z,99749.19
2023-01-31T10:32:11.414Z,99736.75
2023-01-31T10:35:04.219Z,99734.00
2023-01-31T10:38:00.751Z,99723.38
2023-01-31T10:40:58.563Z,99725.38
2023-01-31T10:43:59.498Z,99740.69
2023-01-31T10:46:47.983Z,99736.19
2023-01-31T10:49:35.871Z,99732.56
2023-01-31T10:52:49.842Z,99719.50
2023-01-31T10:56:07.552Z,99708.56
2023-01-31T10:58:56.690Z,99731.94
2023-01-31T11:01:43.825Z,99726.03
2023-01-31T11:04:37.301Z,99730.31
2023-01-31T11:07:25.173Z,99724.06
2023-01-31T11:10:51.206Z,99720.53
2023-01-31T11:13:38.723Z,99711.41
2023-01-31T11:16:32.844Z,99710.72
2023-01-31T11:19:56.033Z,99710.34
2023-01-31T11:22:46.557Z,99719.56
2023-01-31T11:25:35.030Z,99707.78
2023-01-31T11:28:47.786Z,99714.00
2023-01-31T11:31:38.398Z,99714.50
2023-01-31T11:34:31.104Z,99722.19
2023-01-31T11:37:18.945Z,99711.53
2023-01-31T11:40:22.487Z,99705.72
2023-01-31T11:43:30.866Z,99692.53
2023-01-31T11:46:18.063Z,99690.88
2023-01-31T11:49:14.873Z,99684.84
2023-01-31T11:52:14.230Z,99686.53
2023-01-31T11:55:09.338Z,99688.13
2023-01-31T11:57:59.565Z,99695.38
2023-01-31T12:00:52.897Z,99704.94
2023-01-31T12:04:01.181Z,99675.47
2023-01-31T12:07:02.088Z,99663.66
2023-01-31T12:09:49.350Z,99658.97
2023-01-31T12:12:36.467Z,99661.47
2023-01-31T12:15:23.988Z,99663.28
2023-01-31T12:18:11.790Z,99651.19
2023-01-31T12:21:15.562Z,99662.28
2023-01-31T12:24:05.666Z,99663.66
2023-01-31T12:26:57.127Z,99651.75
2023-01-31T12:29:57.260Z,99659.97
2023-01-31T12:32:50.305Z,99666.81
2023-01-31T12:35:55.738Z,99650.63
2023-01-31T12:39:23.821Z,99609.38
2023-01-31T12:42:25.743Z,99660.53
2023-01-31T12:45:38.630Z,99654.47
2023-01-31T12:48:48.098Z,99660.94
2023-01-31T12:52:16.445Z,99640.41
2023-01-31T12:55:31.001Z,99648.25
2023-01-31T12:58:37.657Z,99644.66
2023-01-31T13:01:57.958Z,99632.50
2023-01-31T13:05:02.276Z,99620.25
2023-01-31T13:08:02.657Z,99607.91
2023-01-31T13:10:52.370Z,99610.72
2023-01-31T13:13:45.896Z,99623.28
2023-01-31T13:16:43.060Z,99598.56
2023-01-31T13:19:38.356Z,99606.03
2023-01-31T13:22:48.541Z,99602.72
2023-01-31T13:25:42.576Z,99580.56
2023-01-31T13:28:34.218Z,99584.09
2023-01-31T13:31:36.165Z,99587.59
2023-01-31T13:34:29.403Z,99578.22
2023-01-31T13:37:21.258Z,99597.41
2023-01-31T13:40:14.252Z,99589.44
2023-01-31T13:43:08.682Z,99588.25
2023-01-31T13:46:04.594Z,99594.84
2023-01-31T13:48:54.130Z,99596.25
2023-01-31T13:51:47.658Z,99591.75
2023-01-31T13:54:43.255Z,99578.25
2023-01-31T13:57:45.639Z,99594.22
2023-01-31T14:00:47.702Z,99590.91
2023-01-31T14:04:15.558Z,99608.25
2023-01-31T14:07:06.757Z,99581.75
2023-01-31T14:09:56.883Z,99589.97
2023-01-31T14:12:43.972Z,99570.78
2023-01-31T14:15:52.087Z,99561.19
2023-01-31T14:18:40.429Z,99563.97
2023-01-31T14:21:30.260Z,99559.28
2023-01-31T14:24:21.292Z,99563.66
2023-01-31T14:27:31.449Z,99551.94
2023-01-31T14:30:40.858Z,99545.53
2023-01-31T14:33:29.267Z,99554.16
2023-01-31T14:36:37.412Z,99541.41
2023-01-31T14:39:44.252Z,99545.44
2023-01-31T14:42:31.320Z,99542.56
2023-01-31T14:45:33.164Z,99540.53
2023-01-31T14:48:26.262Z,99549.69
2023-01-31T14:51:40.221Z,99556.28
2023-01-31T14:54:42.332Z,99551.63
2023-01-31T14:57:33.665Z,99566.28
2023-01-31T15:00:26.878Z,99553.19
2023-01-31T15:03:22.393Z,99530.19
2023-01-31T15:06:22.502Z,99542.34
2023-01-31T15:09:30.296Z,99538.19
2023-01-31T15:12:54.833Z,99553.59
2023-01-31T15:15:49.070Z,99539.03
2023-01-31T15:18:36.552Z,99526.34
2023-01-31T15:21:27.896Z,99528.69
2023-01-31T15:24:30.581Z,99551.38
2023-01-31T15:27:22.641Z,99539.34
2023-01-31T15:30:17.555Z,99543.06
2023-01-31T15:33:22.373Z,99545.97
2023-01-31T15:36:21.339Z,99535.41
2023-01-31T15:39:24.264Z,99520.81
2023-01-31T15:42:26.794Z,99512.41
2023-01-31T15:45:22.181Z,99518.69
2023-01-31T15:48:16.894Z,99494.22
2023-01-31T15:51:04.166Z,99485.94
2023-01-31T15:54:06.287Z,99489.53
2023-01-31T15:56:53.577Z,99474.28
2023-01-31T15:59:43.811Z,99491.00
2023-01-31T16:02:33.627Z,99487.38
2023-01-31T16:05:22.679Z,99484.81
2023-01-31T16:08:39.940Z,99478.97
2023-01-31T16:11:28.103Z,99484.25
2023-01-31T16:14:16.611Z,99483.09
2023-01-31T16:17:04.146Z,99487.06
2023-01-31T16:19:51.448Z,99498.44
2023-01-31T16:22:39.111Z,99473.22
2023-01-31T16:25:26.646Z,99479.28
2023-01-31T16:28:14.111Z,99498.84
2023-01-31T16:31:13.969Z,99486.38
2023-01-31T16:34:05.896Z,99496.94
2023-01-31T16:36:58.406Z,99497.91
2023-01-31T16:39:50.901Z,99491.34
2023-01-31T16:42:39.363Z,99497.47
2023-01-31T16:45:32.696Z,99510.50
2023-01-31T16:48:29.748Z,99499.50
2023-01-31T16:51:22.779Z,99516.28
2023-01-31T16:54:30.856Z,99529.38
2023-01-31T16:57:38.320Z,99527.59
2023-01-31T17:00:27.540Z,99535.88
2023-01-31T17:03:23.343Z,99528.81
2023-01-31T17:06:19.707Z,99541.09
2023-01-31T17:09:14.427Z,99547.25
2023-01-31T17:12:01.825Z,99525.25
2023-01-31T17:14:49.519Z,99516.16
2023-01-31T17:17:40.440Z,99501.78
2023-01-31T17:20:28.140Z,99491.22
2023-01-31T17:23:17.337Z,99500.13
2023-01-31T17:26:04.734Z,99482.50
2023-01-31T17:29:01.447Z,99459.44
2023-01-31T17:31:50.196Z,99443.19
2023-01-31T17:34:37.896Z,99443.28
2023-01-31T17:37:31.706Z,99422.34
2023-01-31T17:40:19.970Z,99475.78
2023-01-31T17:43:08.152Z,99478.03
2023-01-31T17:45:55.981Z,99475.28
2023-01-31T17:48:44.553Z,99482.63
2023-01-31T17:51:32.495Z,99487.28
2023-01-31T17:54:21.306Z,99459.34
2023-01-31T17:57:10.021Z,99467.56
2023-01-31T17:59:58.110Z,99444.41
2023-01-31T18:02:46.544Z,99453.31
2023-01-31T18:05:39.169Z,99433.22
2023-01-31T18:08:27.795Z,99465.03
2023-01-31T18:11:17.700Z,99476.19
2023-01-31T18:14:06.848Z,99480.19
2023-01-31T18:16:54.995Z,99476.19
2023-01-31T18:19:43.097Z,99479.53
2023-01-31T18:22:30.595Z,99486.84
2023-01-31T18:25:19.115Z,99491.78
2023-01-31T18:28:08.686Z,99497.69
2023-01-31T18:31:09.618Z,99484.97
2023-01-31T18:33:58.792Z,99508.88
2023-01-31T18:36:46.907Z,99493.41
2023-01-31T18:39:34.908Z,99505.47
2023-01-31T18:42:25.725Z,99500.06
2023-01-31T18:45:13.452Z,99505.22
2023-01-31T18:48:01.586Z,99500.66
2023-01-31T18:50:49.721Z,99506.06
2023-01-31T18:53:40.194Z,99499.22
2023-01-31T18:56:50.727Z,99517.34
2023-01-31T18:59:40.167Z,99509.25
2023-01-31T19:02:28.607Z,99511.75
2023-01-31T19:05:18.314Z,99520.41
2023-01-31T19:08:06.859Z,99503.50
2023-01-31T19:10:55.103Z,99520.88
2023-01-31T19:13:44.253Z,99514.81
2023-01-31T19:16:32.485Z,99525.72
2023-01-31T19:19:21.072Z,99492.56
2023-01-31T19:22:09.688Z,99531.78
2023-01-31T19:24:59.914Z,99527.91
2023-01-31T19:27:48.553Z,99515.25
2023-01-31T19:30:36.660Z,99537.09
2023-01-31T19:33:25.574Z,99529.78
2023-01-31T19:36:16.278Z,99519.53
2023-01-31T19:39:07.233Z,99494.41
2023-01-31T19:41:55.568Z,99497.66
2023-01-31T19:44:45.400Z,99501.91
2023-01-31T19:47:34.311Z,99516.22
2023-01-31T19:50:22.845Z,99514.56
2023-01-31T19:53:10.794Z,99496.50
2023-01-31T19:55:58.910Z,99508.50
2023-01-31T19:58:46.911Z,99503.50
2023-01-31T20:01:38.433Z,99492.88
2023-01-31T20:04:26.362Z,99512.13
2023-01-31T20:07:14.719Z,99515.13
2023-01-31T20:10:04.781Z,99521.31
2023-01-31T20:12:53.014Z,99513.94
2023-01-31T20:15:41.333Z,99521.31
2023-01-31T20:18:31.673Z,99502.53
2023-01-31T20:21:21.309Z,99521.25
2023-01-31T20:24:09.465Z,99504.63
2023-01-31T20:27:00.203Z,99519.72
2023-01-31T20:29:48.834Z,99518.97
2023-01-31T20:32:37.486Z,99530.38
2023-01-31T20:35:25.675Z,99530.22
2023-01-31T20:38:16.170Z,99541.44
2023-01-31T20:41:06.172Z,99471.69
2023-01-31T20:43:54.802Z,99546.66
2023-01-31T20:46:42.985Z,99529.41
2023-01-31T20:49:34.797Z,99553.22
2023-01-31T20:52:24.685Z,99559.84
2023-01-31T20:55:12.454Z,99548.94
2023-01-31T20:58:01.384Z,99573.69
2023-01-31T21:00:48.851Z,99562.91
2023-01-31T21:03:36.930Z,99574.84
2023-01-31T21:06:24.843Z,99574.28
2023-01-31T21:09:13.872Z,99561.69
2023-01-31T21:12:04.752Z,99545.81
2023-01-31T21:14:53.235Z,99545.63
2023-01-31T21:17:40.866Z,99549.72
2023-01-31T21:20:28.507Z,99535.78
2023-01-31T21:23:16.029Z,99541.38
2023-01-31T21:26:04.880Z,99531.78
2023-01-31T21:28:52.754Z,99549.53
2023-01-31T21:31:40.291Z,99529.06
2023-01-31T21:34:28.566Z,99553.03
2023-01-31T21:37:15.907Z,99550.38
2023-01-31T21:40:03.326Z,99534.16
2023-01-31T21:42:51.257Z,99528.53
2023-01-31T21:45:41.469Z,99532.16
2023-01-31T21:48:32.165Z,99540.63
2023-01-31T21:51:22.379Z,99543.34
2023-01-31T21:54:09.359Z,99544.88
2023-01-31T21:56:56.699Z,99554.09
2023-01-31T21:59:45.625Z,99539.09
2023-01-31T22:02:32.782Z,99542.47
2023-01-31T22:05:19.872Z,99553.97
2023-01-31T22:08:06.981Z,99530.16
2023-01-31T22:11:06.117Z,99522.03
2023-01-31T22:13:55.967Z,99511.13
2023-01-31T22:16:43.670Z,99517.91
2023-01-31T22:19:30.739Z,99495.44
2023-01-31T22:22:17.808Z,99482.06
2023-01-31T22:25:05.353Z,99493.31
2023-01-31T22:27:52.596Z,99498.53
2023-01-31T22:30:39.725Z,99499.72
2023-01-31T22:33:26.822Z,99491.22
2023-01-31T22:36:15.245Z,99515.41
2023-01-31T22:39:02.392Z,99507.97
2023-01-31T22:41:49.536Z,99500.38
2023-01-31T22:44:36.602Z,99500.19
2023-01-31T22:47:25.032Z,99508.47
2023-01-31T22:50:12.096Z,99506.50
2023-01-31T22:52:59.186Z,99508.19
2023-01-31T22:55:46.249Z,99500.03
2023-01-31T22:58:33.712Z,99499.47
2023-01-31T23:01:23.204Z,99506.78
2023-01-31T23:04:10.827Z,99494.03
2023-01-31T23:06:58.204Z,99498.72
2023-01-31T23:09:46.451Z,99492.44
2023-01-31T23:12:33.510Z,99488.84
2023-01-31T23:15:20.781Z,99498.91
2023-01-31T23:18:07.819Z,99496.97
2023-01-31T23:20:55.534Z,99498.75
2023-01-31T23:23:45.581Z,99493.59
2023-01-31T23:26:35.276Z,99489.31
2023-01-31T23:29:22.382Z,99493.41
2023-01-31T23:32:09.466Z,99509.88
2023-01-31T23:34:56.635Z,99515.59
2023-01-31T23:37:43.893Z,99509.75
2023-01-31T23:40:30.938Z,99512.66
2023-01-31T23:43:18.245Z,99495.88
2023-01-31T23:46:07.279Z,99500.50
2023-01-31T23:48:54.521Z,99524.88
2023-01-31T23:51:41.694Z,99511.13
2023-01-31T23:54:28.812Z,99498.81
2023-01-31T23:57:15.914Z,99496.06
